Time;durP1;ratioP1;P1;durP2;ratioP2;P2;SDS_P1;SDS_P2;PMS_P1;PMS_P2;Temp;Humidity;BMP_temperature;BMP_pressure;BME280_temperature;BME280_humidity;BME280_pressure;Samples;Min_cycle;Max_cycle;Signal;HPM_P1;HPM_P2
2023/01/21 00:01:12;;;;;;;68.90;31.23;;;0.40;99.90;;;;;;5054824;28;20037;-78
2023/01/21 00:03:38;;;;;;;69.00;32.13;;;0.30;99.90;;;;;;5054008;28;20044;-78
2023/01/21 00:06:04;;;;;;;61.73;29.87;;;0.30;99.90;;;;;;5037191;28;20457;-78
2023/01/21 00:08:29;;;;;;;67.30;31.00;;;0.40;99.90;;;;;;5037776;28;20463;-78
2023/01/21 00:10:55;;;;;;;63.50;30.37;;;0.30;99.90;;;;;;5055150;28;20104;-78
2023/01/21 00:13:21;;;;;;;67.87;32.03;;;0.40;99.90;;;;;;5037208;28;20033;-78
2023/01/21 00:15:47;;;;;;;64.53;30.50;;;0.30;99.90;;;;;;5055486;28;20049;-78
2023/01/21 00:18:13;;;;;;;69.03;31.33;;;0.30;99.90;;;;;;5036812;28;20067;-78
2023/01/21 00:20:39;;;;;;;68.90;31.40;;;0.30;99.90;;;;;;5053485;28;20064;-78
2023/01/21 00:23:05;;;;;;;67.43;31.47;;;0.30;99.90;;;;;;5019618;28;20500;-77
2023/01/21 00:25:30;;;;;;;65.70;31.60;;;0.30;99.90;;;;;;5036956;28;20036;-78
2023/01/21 00:27:58;;;;;;;73.53;32.77;;;0.30;99.90;;;;;;5053459;28;20035;-78
2023/01/21 00:30:24;;;;;;;65.40;28.83;;;0.30;99.90;;;;;;5036784;28;20112;-78
2023/01/21 00:32:51;;;;;;;66.13;31.03;;;0.30;99.90;;;;;;5036268;28;20190;-78
2023/01/21 00:35:16;;;;;;;61.50;27.33;;;0.30;99.90;;;;;;5036509;28;20029;-78
2023/01/21 00:37:42;;;;;;;58.37;28.10;;;0.20;99.90;;;;;;5020030;28;20025;-78
2023/01/21 00:40:08;;;;;;;53.80;25.90;;;0.30;99.90;;;;;;5036357;28;20247;-78
2023/01/21 00:42:34;;;;;;;64.90;27.83;;;0.30;99.90;;;;;;5019949;28;20075;-78
2023/01/21 00:44:59;;;;;;;53.10;23.87;;;0.30;99.90;;;;;;5036429;28;20029;-78
2023/01/21 00:47:25;;;;;;;55.77;26.80;;;0.30;99.90;;;;;;5052680;28;20033;-78
2023/01/21 00:49:51;;;;;;;54.73;26.27;;;0.30;99.90;;;;;;5052722;28;20021;-78
2023/01/21 00:52:16;;;;;;;56.43;26.60;;;0.40;99.90;;;;;;5052678;28;20219;-78
2023/01/21 00:54:42;;;;;;;57.63;26.03;;;0.20;99.90;;;;;;5052526;28;20025;-78
2023/01/21 00:57:07;;;;;;;59.90;28.67;;;0.30;99.90;;;;;;5036514;28;20025;-78
2023/01/21 00:59:33;;;;;;;56.90;27.63;;;0.20;99.90;;;;;;5052566;28;20068;-78
2023/01/21 01:01:59;;;;;;;60.17;29.10;;;0.20;99.90;;;;;;5035807;28;20059;-77
2023/01/21 01:04:24;;;;;;;64.93;28.67;;;0.10;99.90;;;;;;5052235;28;20111;-78
2023/01/21 01:06:50;;;;;;;62.23;28.00;;;0.20;99.90;;;;;;5052492;28;20229;-78
2023/01/21 01:09:16;;;;;;;61.30;27.97;;;0.10;99.90;;;;;;5052614;28;20469;-78
2023/01/21 01:11:42;;;;;;;66.93;30.47;;;0.10;99.90;;;;;;5052334;28;20061;-78
2023/01/21 01:14:07;;;;;;;57.43;26.87;;;0.10;99.90;;;;;;5052456;28;20055;-78
2023/01/21 01:16:33;;;;;;;67.43;29.40;;;0.00;99.90;;;;;;5053623;28;20025;-78
2023/01/21 01:18:59;;;;;;;56.97;24.73;;;0.00;99.90;;;;;;5052598;28;20385;-78
2023/01/21 01:21:24;;;;;;;61.43;28.73;;;0.00;99.90;;;;;;5018984;28;20098;-78
2023/01/21 01:23:51;;;;;;;64.50;28.50;;;0.00;99.90;;;;;;5051998;28;20381;-79
2023/01/21 01:26:18;;;;;;;61.90;28.37;;;0.00;99.90;;;;;;5035527;28;20029;-76
2023/01/21 01:28:44;;;;;;;56.20;24.87;;;0.00;99.90;;;;;;5035617;28;20033;-77
2023/01/21 01:31:18;;;;;;;58.27;27.93;;;0.00;99.90;;;;;;5052224;28;20793;-76
2023/01/21 01:33:44;;;;;;;;;;;-0.10;99.90;;;;;;5052702;28;20462;-77
2023/01/21 01:36:23;;;;;;;62.43;28.13;;;-0.10;99.90;;;;;;5051607;28;20007;-77
2023/01/21 01:38:50;;;;;;;59.10;27.23;;;-0.10;99.90;;;;;;5051824;28;20028;-76
2023/01/21 01:41:22;;;;;;;60.57;27.70;;;0.00;99.90;;;;;;5053162;28;20045;-77
2023/01/21 01:44:16;;;;;;;57.13;25.87;;;-0.10;99.90;;;;;;5053174;28;20511;-77
2023/01/21 01:46:42;;;;;;;60.38;27.10;;;-0.10;99.90;;;;;;5047825;28;20068;-78
2023/01/21 01:49:11;;;;;;;62.43;27.00;;;-0.10;99.90;;;;;;5035444;28;20466;-77
2023/01/21 01:51:53;;;;;;;60.03;25.93;;;-0.10;99.90;;;;;;5053064;28;20025;-78
2023/01/21 01:54:44;;;;;;;56.20;25.47;;;-0.20;99.90;;;;;;5051597;28;20466;-78
2023/01/21 01:57:14;;;;;;;58.93;27.07;;;-0.20;99.90;;;;;;5042473;28;20044;-78
2023/01/21 01:59:41;;;;;;;55.00;27.00;;;-0.10;99.90;;;;;;5053156;28;20036;-78
2023/01/21 02:02:11;;;;;;;62.67;26.80;;;-0.20;99.90;;;;;;5051834;28;20370;-78
2023/01/21 02:04:45;;;;;;;58.23;26.87;;;-0.20;99.90;;;;;;5052487;28;20099;-78
2023/01/21 02:07:11;;;;;;;55.10;26.47;;;-0.20;99.90;;;;;;5051797;28;20032;-79
2023/01/21 02:09:37;;;;;;;56.47;25.13;;;-0.20;99.90;;;;;;5051192;28;20029;-79
2023/01/21 02:12:05;;;;;;;55.43;24.83;;;-0.20;99.90;;;;;;5051678;28;20032;-79
2023/01/21 02:14:35;;;;;;;58.80;27.10;;;-0.20;99.90;;;;;;5051750;28;20123;-77
2023/01/21 02:17:32;;;;;;;57.47;27.00;;;-0.20;99.90;;;;;;5051702;28;20201;-77
2023/01/21 02:20:16;;;;;;;58.53;26.60;;;-0.20;99.90;;;;;;5051050;28;20032;-79
2023/01/21 02:22:46;;;;;;;55.22;26.40;;;-0.10;99.90;;;;;;5052625;28;20025;-77
2023/01/21 02:25:42;;;;;;;54.37;24.07;;;-0.20;99.90;;;;;;5051398;28;20031;-77
2023/01/21 02:28:36;;;;;;;52.77;24.53;;;-0.20;99.90;;;;;;5052731;28;20283;-77
2023/01/21 02:31:24;;;;;;;55.15;25.05;;;-0.20;99.90;;;;;;5051273;28;20540;-78
2023/01/21 02:34:27;;;;;;;58.97;26.03;;;-0.20;99.90;;;;;;5051715;28;20040;-78
2023/01/21 02:37:18;;;;;;;54.57;24.13;;;-0.20;99.90;;;;;;5008122;28;20037;-77
2023/01/21 02:40:22;;;;;;;57.00;24.50;;;-0.20;99.90;;;;;;5051245;28;20473;-78
2023/01/21 02:43:00;;;;;;;63.00;26.67;;;-0.20;99.90;;;;;;5050865;28;20448;-78
2023/01/21 02:45:36;;;;;;;60.53;25.63;;;-0.20;99.90;;;;;;5055120;28;20025;-78
2023/01/21 02:48:10;;;;;;;59.90;25.40;;;-0.30;99.90;;;;;;5056273;28;20031;-77
2023/01/21 02:50:49;;;;;;;62.08;26.50;;;-0.30;99.90;;;;;;5055133;28;20028;-77
2023/01/21 02:53:27;;;;;;;57.23;24.43;;;-0.30;99.90;;;;;;5054915;28;20017;-78
2023/01/21 02:55:54;;;;;;;59.47;26.10;;;-0.30;99.90;;;;;;5038418;28;20017;-78
2023/01/21 02:58:29;;;;;;;54.07;23.70;;;-0.30;99.90;;;;;;5055194;28;20079;-77
2023/01/21 03:00:58;;;;;;;50.87;23.50;;;-0.30;99.90;;;;;;5054812;28;20041;-77
2023/01/21 03:03:53;;;;;;;62.23;25.50;;;-0.30;99.90;;;;;;5055078;28;20025;-78
2023/01/21 03:06:40;;;;;;;54.90;24.53;;;-0.40;99.90;;;;;;5054455;28;20049;-78
2023/01/21 03:09:22;;;;;;;62.07;25.80;;;-0.30;99.90;;;;;;5054702;28;20280;-78
2023/01/21 03:12:16;;;;;;;53.43;24.27;;;-0.40;99.90;;;;;;5054701;28;20134;-78
2023/01/21 03:18:05;;;;;;;55.73;24.97;;;-0.40;99.90;;;;;;5056074;28;20090;-78
2023/01/21 03:20:43;;;;;;;52.20;22.63;;;-0.40;99.90;;;;;;5054305;28;20077;-78
2023/01/21 03:23:25;;;;;;;48.67;22.53;;;-0.40;99.90;;;;;;5054485;28;20329;-78
2023/01/21 03:25:50;;;;;;;52.10;23.23;;;-0.40;99.90;;;;;;5055606;28;20279;-78
2023/01/21 03:28:23;;;;;;;56.67;25.33;;;-0.40;99.90;;;;;;5021354;28;20384;-77
2023/01/21 03:30:55;;;;;;;60.08;25.65;;;-0.40;99.90;;;;;;5055779;28;20243;-78
2023/01/21 03:33:22;;;;;;;56.07;24.43;;;-0.40;99.90;;;;;;5054141;28;20108;-78
2023/01/21 03:35:53;;;;;;;56.43;24.87;;;-0.40;99.90;;;;;;5054025;28;20039;-77
2023/01/21 03:38:30;;;;;;;53.87;22.87;;;-0.50;99.90;;;;;;5055479;28;20485;-77
2023/01/21 03:41:01;;;;;;;55.80;24.93;;;-0.50;99.90;;;;;;5054049;28;20087;-77
2023/01/21 03:43:27;;;;;;;57.43;25.30;;;-0.40;99.90;;;;;;5053789;28;20404;-77
2023/01/21 03:46:28;;;;;;;57.57;25.03;;;-0.40;99.90;;;;;;5055319;28;20275;-78
2023/01/21 03:49:18;;;;;;;51.23;23.53;;;-0.50;99.90;;;;;;5055477;28;20021;-77
2023/01/21 03:51:49;;;;;;;50.73;22.70;;;-0.50;99.90;;;;;;5047066;28;20412;-78
2023/01/21 03:54:15;;;;;;;47.27;21.73;;;-0.40;99.90;;;;;;5055150;28;20278;-78
2023/01/21 03:56:40;;;;;;;50.53;21.63;;;-0.50;99.90;;;;;;5036377;28;20033;-77
2023/01/21 03:59:06;;;;;;;50.30;22.30;;;-0.50;99.90;;;;;;5037290;28;20055;-78
2023/01/21 04:01:31;;;;;;;50.43;21.03;;;-0.50;99.90;;;;;;5055377;28;20090;-77
2023/01/21 04:03:57;;;;;;;51.77;21.30;;;-0.40;99.90;;;;;;5037090;28;20033;-78
2023/01/21 04:06:23;;;;;;;51.67;21.57;;;-0.50;99.90;;;;;;5053149;28;20040;-78
2023/01/21 04:08:49;;;;;;;50.40;20.77;;;-0.50;99.90;;;;;;5055224;28;20025;-78
2023/01/21 04:11:15;;;;;;;50.10;21.57;;;-0.50;99.90;;;;;;5054741;28;20428;-78
2023/01/21 04:13:41;;;;;;;57.83;23.13;;;-0.50;99.90;;;;;;5037374;28;20029;-78
2023/01/21 04:16:07;;;;;;;55.20;23.60;;;-0.50;99.90;;;;;;5053720;28;20056;-78
2023/01/21 04:18:33;;;;;;;54.03;24.00;;;-0.50;99.90;;;;;;5053442;28;20032;-78
2023/01/21 04:20:58;;;;;;;59.10;24.23;;;-0.50;99.90;;;;;;5053061;28;20045;-78
2023/01/21 04:23:24;;;;;;;55.10;23.53;;;-0.50;99.90;;;;;;5037052;28;20029;-78
2023/01/21 04:25:51;;;;;;;54.67;22.27;;;-0.50;99.90;;;;;;5036366;28;20518;-78
2023/01/21 04:28:17;;;;;;;49.97;22.33;;;-0.50;99.90;;;;;;5036528;28;20041;-78
2023/01/21 04:30:45;;;;;;;54.07;22.07;;;-0.60;99.90;;;;;;5036661;28;20275;-78
2023/01/21 04:33:10;;;;;;;51.27;21.90;;;-0.60;99.90;;;;;;5053001;28;20271;-77
2023/01/21 04:35:36;;;;;;;53.03;22.67;;;-0.60;99.90;;;;;;5052886;28;20767;-79
2023/01/21 04:38:02;;;;;;;53.23;23.10;;;-0.60;99.90;;;;;;5036828;28;20028;-78
2023/01/21 04:40:28;;;;;;;52.57;23.13;;;-0.60;99.90;;;;;;5020310;28;20040;-78
2023/01/21 04:42:53;;;;;;;51.70;22.77;;;-0.70;99.90;;;;;;5036161;28;20823;-78
2023/01/21 04:45:19;;;;;;;52.23;23.17;;;-0.60;99.90;;;;;;5053226;28;20488;-79
2023/01/21 04:47:45;;;;;;;52.17;22.00;;;-0.70;99.90;;;;;;5053193;28;20443;-78
2023/01/21 04:50:12;;;;;;;57.07;24.83;;;-0.60;99.90;;;;;;5052911;28;20033;-78
2023/01/21 04:52:38;;;;;;;54.47;21.97;;;-0.60;99.90;;;;;;5036441;28;20420;-78
2023/01/21 04:55:04;;;;;;;57.77;23.40;;;-0.70;99.90;;;;;;5052767;28;20333;-78
2023/01/21 04:57:30;;;;;;;58.60;21.87;;;-0.70;99.90;;;;;;5053292;28;20029;-78
2023/01/21 04:59:56;;;;;;;56.67;24.13;;;-0.70;99.90;;;;;;5052870;28;20386;-78
2023/01/21 05:02:21;;;;;;;60.80;23.30;;;-0.70;99.90;;;;;;5035767;28;20420;-78
2023/01/21 05:04:47;;;;;;;56.90;23.87;;;-0.70;99.90;;;;;;5052348;28;20588;-78
2023/01/21 05:07:13;;;;;;;59.90;25.37;;;-0.70;99.90;;;;;;5035625;28;20492;-78
2023/01/21 05:09:39;;;;;;;61.73;24.77;;;-0.70;99.90;;;;;;5035884;28;20037;-78
2023/01/21 05:12:06;;;;;;;58.93;25.43;;;-0.70;99.90;;;;;;5052456;28;20755;-78
2023/01/21 05:14:32;;;;;;;68.87;26.67;;;-0.70;99.90;;;;;;5052300;28;20021;-78
2023/01/21 05:16:58;;;;;;;63.97;25.03;;;-0.70;99.90;;;;;;5051618;28;20283;-78
2023/01/21 05:19:23;;;;;;;58.73;25.93;;;-0.70;99.90;;;;;;5035706;28;20028;-77
2023/01/21 05:21:49;;;;;;;62.90;26.03;;;-0.70;99.90;;;;;;5035593;28;20392;-77
2023/01/21 05:24:15;;;;;;;60.87;24.43;;;-0.70;99.90;;;;;;5052503;28;20025;-76
2023/01/21 05:26:40;;;;;;;61.93;23.67;;;-0.80;99.90;;;;;;5052323;28;20039;-77
2023/01/21 05:29:06;;;;;;;62.07;26.47;;;-0.80;99.90;;;;;;5035464;28;20033;-77
2023/01/21 05:31:32;;;;;;;62.50;25.47;;;-0.80;99.90;;;;;;5035374;28;20474;-78
2023/01/21 05:33:57;;;;;;;73.70;29.30;;;-0.70;99.90;;;;;;5020300;28;20119;-77
2023/01/21 05:36:23;;;;;;;65.80;27.53;;;-0.80;99.90;;;;;;5055303;28;20031;-77
2023/01/21 05:38:48;;;;;;;61.70;24.97;;;-0.80;99.90;;;;;;5049885;28;20035;-77
2023/01/21 05:41:14;;;;;;;72.77;27.07;;;-0.80;99.90;;;;;;5071328;28;20093;-77
2023/01/21 05:43:40;;;;;;;67.80;27.97;;;-0.80;99.90;;;;;;5043400;28;20504;-77
2023/01/21 05:46:05;;;;;;;68.73;27.43;;;-0.80;99.90;;;;;;5014592;28;20029;-77
2023/01/21 05:48:31;;;;;;;72.67;28.90;;;-0.80;99.90;;;;;;5014107;28;20030;-78
2023/01/21 05:50:57;;;;;;;71.53;27.00;;;-0.80;99.90;;;;;;5033363;28;20441;-77
2023/01/21 05:53:24;;;;;;;74.20;27.53;;;-0.80;99.90;;;;;;5031775;28;20025;-77
2023/01/21 05:55:56;;;;;;;72.33;27.80;;;-0.80;99.90;;;;;;5015542;28;20474;-78
2023/01/21 05:58:23;;;;;;;62.97;25.03;;;-0.80;99.90;;;;;;5031544;28;20337;-78
2023/01/21 06:00:49;;;;;;;65.90;27.93;;;-0.80;99.90;;;;;;5031817;28;20296;-77
2023/01/21 06:03:16;;;;;;;74.37;28.07;;;-0.70;99.90;;;;;;5015363;28;20036;-77
2023/01/21 06:05:42;;;;;;;77.63;29.70;;;-0.80;99.90;;;;;;5031107;28;20030;-77
2023/01/21 06:08:12;;;;;;;84.17;32.37;;;-0.80;99.90;;;;;;5031684;28;20284;-77
2023/01/21 06:10:38;;;;;;;74.70;30.23;;;-0.70;99.90;;;;;;5015314;28;20699;-77
2023/01/21 06:13:04;;;;;;;86.20;32.23;;;-0.70;99.90;;;;;;5018035;28;20295;-77
2023/01/21 06:15:32;;;;;;;74.17;29.93;;;-0.60;99.90;;;;;;5049965;28;20147;-77
2023/01/21 06:17:58;;;;;;;84.63;30.83;;;-0.60;99.90;;;;;;5051842;28;20032;-78
2023/01/21 06:20:24;;;;;;;75.20;30.60;;;-0.60;99.90;;;;;;5054787;28;20091;-77
2023/01/21 06:22:50;;;;;;;82.50;32.80;;;-0.50;99.90;;;;;;5056795;28;20481;-77
2023/01/21 06:25:16;;;;;;;80.33;32.93;;;-0.50;99.90;;;;;;5038685;28;20036;-78
2023/01/21 06:27:41;;;;;;;82.50;31.97;;;-0.40;99.90;;;;;;5055476;28;20035;-78
2023/01/21 06:30:10;;;;;;;85.70;33.70;;;-0.40;99.90;;;;;;5055745;28;20041;-78
2023/01/21 06:32:36;;;;;;;88.67;33.47;;;-0.30;99.90;;;;;;5039202;28;20123;-78
2023/01/21 06:35:03;;;;;;;79.93;31.57;;;-0.20;99.90;;;;;;5056278;28;20116;-78
2023/01/21 06:37:28;;;;;;;84.83;33.90;;;-0.30;99.90;;;;;;5038875;28;20039;-78
2023/01/21 06:39:54;;;;;;;87.07;32.63;;;-0.30;99.90;;;;;;5038738;28;20133;-78
2023/01/21 06:42:19;;;;;;;86.73;34.83;;;-0.20;99.90;;;;;;5055375;28;20091;-77
2023/01/21 06:44:46;;;;;;;91.43;35.80;;;-0.20;99.90;;;;;;5055732;28;20025;-78
2023/01/21 06:47:12;;;;;;;93.47;34.63;;;-0.20;99.90;;;;;;5055942;28;20029;-77
2023/01/21 06:49:37;;;;;;;91.27;35.57;;;-0.10;99.90;;;;;;5039311;28;20477;-77
2023/01/21 06:52:03;;;;;;;94.47;34.77;;;-0.10;99.90;;;;;;5022229;28;20036;-79
2023/01/21 06:54:29;;;;;;;90.07;33.97;;;-0.10;99.90;;;;;;5054988;28;20025;-78
2023/01/21 06:56:55;;;;;;;78.93;31.33;;;-0.10;99.90;;;;;;5054911;28;20028;-78
2023/01/21 06:59:20;;;;;;;100.83;32.13;;;0.10;99.90;;;;;;5054723;28;20032;-78
2023/01/21 07:01:46;;;;;;;90.63;33.23;;;0.00;99.90;;;;;;5022132;28;20064;-78
2023/01/21 07:04:12;;;;;;;84.40;31.50;;;0.00;99.90;;;;;;5038439;28;20108;-78
2023/01/21 07:06:38;;;;;;;84.50;31.67;;;0.00;99.90;;;;;;5037986;28;20025;-78
2023/01/21 07:09:04;;;;;;;78.03;30.10;;;0.10;99.90;;;;;;5054886;28;20119;-79
2023/01/21 07:11:30;;;;;;;88.60;31.03;;;0.00;99.90;;;;;;5054575;28;20029;-78
2023/01/21 07:13:56;;;;;;;78.87;30.53;;;0.10;99.90;;;;;;5044852;28;20568;-78
2023/01/21 07:16:22;;;;;;;82.90;30.90;;;0.10;99.90;;;;;;5028368;28;20030;-78
2023/01/21 07:18:47;;;;;;;86.00;31.90;;;0.20;99.90;;;;;;5028745;28;20021;-78
2023/01/21 07:21:13;;;;;;;82.73;30.77;;;0.20;99.90;;;;;;5043314;28;20413;-78
2023/01/21 07:23:39;;;;;;;80.47;29.53;;;0.20;99.90;;;;;;5043904;28;20478;-78
2023/01/21 07:26:05;;;;;;;74.17;28.93;;;0.20;99.90;;;;;;5044701;28;20465;-78
2023/01/21 07:28:30;;;;;;;81.33;29.13;;;0.20;99.90;;;;;;5043037;28;20063;-78
2023/01/21 07:31:00;;;;;;;77.77;27.40;;;0.20;99.90;;;;;;5042403;28;20112;-78
2023/01/21 07:33:27;;;;;;;77.43;29.67;;;0.20;99.90;;;;;;5045186;28;20110;-79
2023/01/21 07:35:53;;;;;;;88.23;29.60;;;0.20;99.90;;;;;;5035198;28;20072;-78
2023/01/21 07:38:18;;;;;;;88.47;30.93;;;0.20;99.90;;;;;;5059712;28;20486;-79
2023/01/21 07:40:47;;;;;;;86.17;29.00;;;0.30;99.90;;;;;;5039050;28;20242;-78
2023/01/21 07:43:13;;;;;;;73.37;26.40;;;0.30;99.90;;;;;;5070644;28;20381;-79
2023/01/21 07:45:38;;;;;;;78.43;27.20;;;0.30;99.90;;;;;;5057736;28;20086;-78
2023/01/21 07:48:05;;;;;;;87.13;29.90;;;0.30;99.90;;;;;;5035494;28;20024;-77
2023/01/21 07:50:30;;;;;;;82.97;30.67;;;0.30;99.90;;;;;;5049514;28;20033;-78
2023/01/21 07:52:58;;;;;;;81.50;29.53;;;0.40;99.90;;;;;;5042788;28;20029;-78
2023/01/21 07:55:24;;;;;;;72.70;26.00;;;0.30;99.90;;;;;;5031117;28;20029;-78
2023/01/21 07:57:49;;;;;;;80.63;29.33;;;0.40;99.90;;;;;;5019962;28;20087;-77
2023/01/21 08:00:15;;;;;;;92.00;31.47;;;0.40;99.90;;;;;;5064238;28;20397;-78
2023/01/21 08:02:41;;;;;;;88.60;33.87;;;0.40;99.90;;;;;;5035482;28;20098;-78
2023/01/21 08:05:07;;;;;;;80.73;30.30;;;0.40;99.90;;;;;;5066558;28;20478;-78
2023/01/21 08:07:33;;;;;;;87.33;32.57;;;0.50;99.90;;;;;;5038269;28;20044;-78
2023/01/21 08:09:58;;;;;;;91.27;33.47;;;0.50;99.90;;;;;;5070564;28;20029;-77
2023/01/21 08:12:24;;;;;;;90.63;34.77;;;0.50;99.90;;;;;;5056787;28;20037;-77
2023/01/21 08:14:50;;;;;;;83.27;31.67;;;0.50;99.90;;;;;;5014291;28;20074;-78
2023/01/21 08:17:15;;;;;;;86.17;31.40;;;0.60;99.90;;;;;;5053713;28;20041;-77
2023/01/21 08:19:41;;;;;;;86.13;33.30;;;0.60;99.90;;;;;;5030452;28;20115;-77
2023/01/21 08:22:06;;;;;;;80.60;31.13;;;0.60;99.90;;;;;;5043785;28;20034;-77
2023/01/21 08:24:32;;;;;;;77.40;30.50;;;0.70;99.90;;;;;;5034033;28;20101;-77
2023/01/21 08:26:59;;;;;;;77.97;31.33;;;0.60;99.90;;;;;;5052327;28;20052;-78
2023/01/21 08:29:25;;;;;;;69.83;28.27;;;0.70;99.90;;;;;;5061503;28;20504;-78
2023/01/21 08:31:51;;;;;;;76.57;30.80;;;0.70;99.90;;;;;;5054017;28;20027;-78
2023/01/21 08:34:17;;;;;;;78.27;29.63;;;0.70;99.90;;;;;;5041935;28;20033;-78
2023/01/21 08:36:43;;;;;;;70.90;29.20;;;0.80;99.90;;;;;;5054668;28;20028;-78
2023/01/21 08:39:14;;;;;;;82.47;30.27;;;0.80;99.90;;;;;;5040975;28;20136;-79
2023/01/21 08:41:39;;;;;;;76.90;30.97;;;0.80;99.90;;;;;;5071156;28;20046;-79
2023/01/21 08:44:06;;;;;;;77.50;29.73;;;0.90;99.90;;;;;;5043041;28;20132;-79
2023/01/21 08:46:32;;;;;;;72.20;29.77;;;0.90;99.90;;;;;;5053060;28;20041;-78
2023/01/21 08:48:58;;;;;;;73.37;29.03;;;1.00;99.90;;;;;;5059778;28;20491;-78
2023/01/21 08:51:24;;;;;;;71.17;28.80;;;1.00;99.90;;;;;;5030425;28;20118;-79
2023/01/21 08:53:50;;;;;;;69.97;27.83;;;1.00;99.90;;;;;;5064060;28;20091;-78
2023/01/21 08:56:16;;;;;;;69.20;27.70;;;1.10;99.90;;;;;;5040606;28;20412;-78
2023/01/21 08:58:42;;;;;;;67.63;26.43;;;1.20;99.90;;;;;;5054933;28;20476;-78
2023/01/21 09:01:14;;;;;;;66.57;26.67;;;1.20;99.90;;;;;;5027965;28;20045;-78
2023/01/21 09:03:40;;;;;;;65.53;26.03;;;1.40;99.90;;;;;;5060713;28;20028;-80
2023/01/21 09:06:07;;;;;;;62.13;25.40;;;1.30;99.90;;;;;;5051825;28;20017;-78
2023/01/21 09:08:32;;;;;;;64.33;25.07;;;1.40;99.90;;;;;;5054834;28;20055;-78
2023/01/21 09:11:02;;;;;;;62.07;26.80;;;1.40;99.90;;;;;;5059385;28;20048;-79
2023/01/21 09:13:36;;;;;;;63.73;25.83;;;1.50;99.90;;;;;;5048352;28;20024;-79
2023/01/21 09:16:06;;;;;;;65.50;25.17;;;1.60;99.90;;;;;;5040397;28;20025;-78
2023/01/21 09:18:31;;;;;;;55.07;22.67;;;1.70;99.90;;;;;;5062726;28;20025;-78
2023/01/21 09:21:02;;;;;;;59.70;25.00;;;1.70;99.90;;;;;;5064029;28;20401;-77
2023/01/21 09:23:31;;;;;;;57.93;24.73;;;1.80;99.90;;;;;;5052461;28;20771;-78
2023/01/21 09:26:04;;;;;;;53.50;24.50;;;1.90;99.90;;;;;;5053732;28;20034;-78
2023/01/21 09:28:31;;;;;;;59.75;24.88;;;1.90;99.90;;;;;;5056797;28;20028;-78
2023/01/21 09:30:59;;;;;;;65.07;26.17;;;1.90;99.90;;;;;;5062220;28;20070;-78
2023/01/21 09:33:26;;;;;;;59.17;25.53;;;2.10;99.90;;;;;;5057329;28;20024;-78
2023/01/21 09:35:56;;;;;;;62.03;26.60;;;2.10;99.90;;;;;;5049708;28;20531;-79
2023/01/21 09:38:22;;;;;;;66.33;29.00;;;2.10;99.90;;;;;;5051391;28;20416;-78
2023/01/21 09:40:48;;;;;;;61.03;26.70;;;2.20;99.90;;;;;;5064469;28;20040;-79
2023/01/21 09:43:22;;;;;;;59.13;25.63;;;2.20;99.90;;;;;;5050569;28;20122;-78
2023/01/21 09:45:51;;;;;;;58.78;26.50;;;2.20;99.90;;;;;;5061239;28;20020;-78
2023/01/21 09:48:27;;;;;;;60.37;26.27;;;2.20;99.90;;;;;;5056315;28;20021;-79
2023/01/21 09:50:55;;;;;;;61.63;26.20;;;2.30;99.90;;;;;;5049263;28;20024;-78
2023/01/21 09:53:36;;;;;;;58.10;24.97;;;2.20;99.90;;;;;;5065635;28;20107;-78
2023/01/21 09:56:05;;;;;;;59.23;25.83;;;2.40;99.90;;;;;;5071656;28;20586;-78
2023/01/21 09:58:41;;;;;;;60.43;25.57;;;2.40;99.90;;;;;;5071522;28;20040;-78
2023/01/21 10:01:10;;;;;;;56.67;25.33;;;2.40;99.90;;;;;;5071277;28;20029;-78
2023/01/21 10:03:51;;;;;;;56.03;24.50;;;2.50;99.90;;;;;;5059643;28;20619;-78
2023/01/21 10:06:38;;;;;;;54.63;24.10;;;2.60;99.90;;;;;;5061541;28;20035;-78
2023/01/21 10:09:26;;;;;;;55.00;24.70;;;2.60;99.90;;;;;;5055773;28;20424;-77
2023/01/21 10:12:09;;;;;;;62.33;27.63;;;2.70;99.90;;;;;;5059253;28;20025;-77
2023/01/21 10:14:59;;;;;;;59.97;26.17;;;2.70;99.90;;;;;;5054736;28;20029;-78
2023/01/21 10:17:52;;;;;;;59.43;27.30;;;2.70;99.90;;;;;;5054908;28;20033;-78
2023/01/21 10:20:23;;;;;;;57.40;25.97;;;2.80;99.90;;;;;;5042111;28;20048;-79
2023/01/21 10:22:58;;;;;;;54.07;24.10;;;2.80;99.90;;;;;;5063220;28;20028;-77
2023/01/21 10:25:30;;;;;;;58.83;23.63;;;2.80;99.90;;;;;;5057712;28;20036;-78
2023/01/21 10:28:00;;;;;;;58.60;27.50;;;2.90;99.90;;;;;;5069934;28;20025;-79
2023/01/21 10:30:34;;;;;;;51.43;25.03;;;2.90;99.90;;;;;;5071071;28;20499;-79
2023/01/21 10:33:00;;;;;;;;;;;3.00;99.90;;;;;;5049103;28;20496;-79
2023/01/21 10:35:43;;;;;;;52.07;23.50;;;3.10;99.90;;;;;;5052869;28;19909;-79
2023/01/21 10:38:11;;;;;;;54.57;24.43;;;3.00;99.90;;;;;;5055512;28;20029;-79
2023/01/21 10:40:56;;;;;;;51.93;24.70;;;3.00;99.90;;;;;;5047544;28;20069;-79
2023/01/21 10:43:42;;;;;;;53.57;25.07;;;3.10;99.90;;;;;;5054614;28;20113;-79
2023/01/21 10:46:40;;;;;;;51.87;25.23;;;3.20;99.90;;;;;;5049389;28;20034;-80
2023/01/21 10:49:36;;;;;;;51.30;24.47;;;3.20;99.90;;;;;;4997995;28;20059;-79
2023/01/21 10:52:08;;;;;;;54.13;24.17;;;3.30;99.90;;;;;;5041229;28;20119;-79
2023/01/21 10:55:05;;;;;;;49.27;23.83;;;3.40;99.90;;;;;;5047281;28;20112;-79
2023/01/21 10:57:52;;;;;;;50.03;24.93;;;3.50;99.90;;;;;;5049903;28;20037;-83
2023/01/21 11:00:26;;;;;;;46.13;22.07;;;3.70;99.90;;;;;;5041199;28;20037;-81
2023/01/21 11:03:02;;;;;;;47.50;24.20;;;4.00;99.90;;;;;;5032652;28;20037;-81
2023/01/21 11:05:29;;;;;;;43.83;21.77;;;4.40;99.90;;;;;;5032203;28;20025;-82
2023/01/21 11:07:56;;;;;;;44.53;22.53;;;4.90;99.90;;;;;;5018520;28;20041;-82
2023/01/21 11:10:24;;;;;;;41.93;22.53;;;5.30;99.90;;;;;;5036147;28;20041;-82
2023/01/21 11:12:50;;;;;;;40.10;21.97;;;5.40;99.90;;;;;;5035396;28;20026;-81
2023/01/21 11:15:18;;;;;;;41.53;22.27;;;5.60;99.90;;;;;;5035849;28;20029;-81
2023/01/21 11:17:46;;;;;;;47.20;22.93;;;5.60;99.90;;;;;;5034266;28;20017;-81
2023/01/21 11:20:37;;;;;;;40.23;22.37;;;5.70;99.90;;;;;;5034794;28;20036;-81
2023/01/21 11:23:05;;;;;;;37.17;21.37;;;6.00;99.90;;;;;;5034320;28;20100;-81
2023/01/21 11:25:35;;;;;;;35.43;20.37;;;6.50;99.90;;;;;;5034286;28;20044;-78
2023/01/21 11:28:01;;;;;;;37.17;20.83;;;7.00;99.90;;;;;;5035701;28;20080;-82
2023/01/21 11:30:38;;;;;;;35.60;20.47;;;7.40;99.90;;;;;;5031867;28;20033;-81
2023/01/21 11:33:30;;;;;;;32.28;18.08;;;7.80;99.90;;;;;;5054125;28;20025;-79
2023/01/21 11:36:07;;;;;;;28.25;17.77;;;8.50;99.90;;;;;;5049936;28;20148;-80
2023/01/21 11:38:34;;;;;;;29.98;17.27;;;8.90;99.90;;;;;;5049200;28;20043;-81
2023/01/21 11:41:12;;;;;;;28.98;16.63;;;9.20;99.90;;;;;;5044341;28;20116;-77
2023/01/21 11:43:44;;;;;;;28.30;17.20;;;9.50;99.90;;;;;;5044126;28;20060;-78
2023/01/21 11:46:29;;;;;;;30.13;18.55;;;9.60;99.90;;;;;;5042301;28;20025;-78
2023/01/21 11:49:20;;;;;;;31.50;19.05;;;9.70;99.90;;;;;;5044650;28;20155;-78
2023/01/21 11:51:46;;;;;;;30.40;17.98;;;9.60;99.90;;;;;;5036905;28;20087;-78
2023/01/21 11:54:19;;;;;;;30.65;17.98;;;9.60;98.10;;;;;;5017544;28;20025;-78
2023/01/21 11:56:54;;;;;;;29.48;17.00;;;9.60;98.10;;;;;;5033952;28;20055;-79
2023/01/21 11:59:29;;;;;;;25.90;16.02;;;9.80;95.70;;;;;;5034118;28;20362;-79
2023/01/21 12:02:02;;;;;;;28.98;16.55;;;9.90;94.90;;;;;;5034118;28;20076;-78
2023/01/21 12:04:29;;;;;;;27.83;16.25;;;9.70;92.40;;;;;;5033372;28;20017;-79
2023/01/21 12:06:59;;;;;;;32.75;18.48;;;9.50;90.90;;;;;;5033837;28;20029;-79
2023/01/21 12:09:26;;;;;;;28.90;16.73;;;9.20;89.10;;;;;;5035278;28;20029;-78
2023/01/21 12:12:23;;;;;;;30.00;16.23;;;8.90;87.70;;;;;;5034785;28;20025;-78
2023/01/21 12:14:56;;;;;;;28.43;16.80;;;8.70;87.00;;;;;;5033847;28;20029;-78
2023/01/21 12:17:45;;;;;;;31.50;18.17;;;8.50;87.30;;;;;;5032981;28;20025;-79
2023/01/21 12:20:35;;;;;;;28.80;16.37;;;8.20;87.70;;;;;;5034772;28;20045;-78
2023/01/21 12:23:14;;;;;;;30.80;16.77;;;8.10;88.10;;;;;;5033488;28;20021;-78
2023/01/21 12:26:00;;;;;;;28.90;15.53;;;7.90;86.90;;;;;;5034214;28;20440;-78
2023/01/21 12:28:48;;;;;;;28.00;16.10;;;7.80;87.10;;;;;;5034890;28;20034;-78
2023/01/21 12:31:22;;;;;;;28.30;15.33;;;7.70;88.10;;;;;;5033735;28;20087;-79
2023/01/21 12:33:59;;;;;;;27.93;15.43;;;7.70;87.10;;;;;;5033258;28;20539;-79
2023/01/21 12:36:46;;;;;;;24.10;13.13;;;7.60;88.10;;;;;;5034371;28;20021;-79
2023/01/21 12:39:39;;;;;;;20.90;12.27;;;7.60;88.20;;;;;;5033743;28;20024;-78
2023/01/21 12:42:08;;;;;;;25.63;13.70;;;7.60;88.40;;;;;;5034858;28;20033;-79
2023/01/21 12:44:59;;;;;;;24.43;13.13;;;7.60;88.10;;;;;;5054504;28;20035;-79
2023/01/21 12:47:52;;;;;;;26.23;12.80;;;7.40;88.40;;;;;;5054380;28;20031;-79
2023/01/21 12:50:26;;;;;;;24.20;13.87;;;7.30;88.50;;;;;;5053119;28;20104;-79
2023/01/21 12:53:14;;;;;;;22.33;12.18;;;7.20;88.60;;;;;;5054261;28;20028;-78
2023/01/21 12:56:01;;;;;;;24.87;13.83;;;7.20;89.00;;;;;;5054549;28;20024;-78